createdAt,value
2017-04-03T00:00:41.972Z,0
2017-04-03T00:01:43.801Z,0
2017-04-03T00:02:45.613Z,0
2017-04-03T00:03:47.419Z,0
2017-04-03T00:04:49.232Z,0
2017-04-03T00:05:51.049Z,0
2017-04-03T00:06:53.248Z,0
2017-04-03T00:07:55.065Z,0
2017-04-03T00:08:56.872Z,0
2017-04-03T00:09:58.694Z,0
2017-04-03T00:11:00.499Z,0
2017-04-03T00:12:02.321Z,0
2017-04-03T00:13:04.127Z,0
2017-04-03T00:14:05.943Z,0
2017-04-03T00:15:07.755Z,0
2017-04-03T00:16:09.573Z,0
2017-04-03T00:17:11.393Z,0
2017-04-03T00:18:13.247Z,0
2017-04-03T00:19:15.054Z,0
2017-04-03T00:20:17.232Z,0
2017-04-03T00:21:19.042Z,0
2017-04-03T00:22:21.197Z,0
2017-04-03T00:23:23.006Z,0
2017-04-03T00:24:24.835Z,0
2017-04-03T00:25:26.659Z,0
2017-04-03T00:26:28.487Z,0
2017-04-03T00:27:30.308Z,0
2017-04-03T00:28:32.461Z,0
2017-04-03T00:29:34.283Z,0
2017-04-03T00:30:36.108Z,0
2017-04-03T00:31:37.917Z,0
2017-04-03T00:32:39.741Z,0
2017-04-03T00:33:41.573Z,0
2017-04-03T00:34:43.516Z,0
2017-04-03T00:35:45.325Z,0
2017-04-03T00:36:47.137Z,0
2017-04-03T00:37:48.952Z,0
2017-04-03T00:38:50.773Z,0
2017-04-03T00:39:52.941Z,0
2017-04-03T00:40:54.758Z,0
2017-04-03T00:41:56.576Z,0
2017-04-03T00:42:58.409Z,0
2017-04-03T00:44:00.231Z,0
2017-04-03T00:45:02.043Z,0
2017-04-03T00:46:04.201Z,0
2017-04-03T00:47:06.352Z,0
2017-04-03T00:48:08.177Z,0
2017-04-03T00:49:09.989Z,0
2017-04-03T00:50:12.146Z,0
2017-04-03T00:51:14.289Z,0
2017-04-03T00:52:16.101Z,0
2017-04-03T00:53:17.931Z,0
2017-04-03T00:54:20.084Z,0
2017-04-03T00:55:21.905Z,0
2017-04-03T00:56:23.714Z,0
2017-04-03T00:57:25.535Z,0
2017-04-03T00:58:27.367Z,0
2017-04-03T00:59:29.177Z,0
2017-04-03T01:00:31.003Z,0
2017-04-03T01:01:32.808Z,0
2017-04-03T01:02:34.640Z,0
2017-04-03T01:03:36.459Z,0
2017-04-03T01:04:38.262Z,0
2017-04-03T01:05:40.080Z,0
2017-04-03T01:06:41.893Z,0
2017-04-03T01:07:43.714Z,0
2017-04-03T01:08:45.543Z,0
2017-04-03T01:09:47.350Z,0
2017-04-03T01:10:49.178Z,0
2017-04-03T01:11:50.993Z,0
2017-04-03T01:12:52.823Z,0
2017-04-03T01:13:54.634Z,0
2017-04-03T01:14:56.453Z,0
2017-04-03T01:15:58.631Z,0
2017-04-03T01:17:00.451Z,0
2017-04-03T01:18:02.271Z,0
2017-04-03T01:19:04.088Z,0
2017-04-03T01:20:05.905Z,0
2017-04-03T01:21:07.731Z,0
2017-04-03T01:22:09.544Z,0
2017-04-03T01:23:11.366Z,0
2017-04-03T01:26:19.237Z,0
2017-04-03T01:28:55.004Z,0
2017-04-03T01:29:56.824Z,0
2017-04-03T01:30:58.648Z,0
2017-04-03T01:32:00.810Z,0
2017-04-03T01:33:02.629Z,0
2017-04-03T01:34:04.454Z,0
2017-04-03T01:35:06.276Z,0
2017-04-03T01:36:08.428Z,0
2017-04-03T01:37:10.252Z,0
2017-04-03T01:38:12.078Z,0
2017-04-03T01:39:13.893Z,0
2017-04-03T01:40:15.717Z,0
2017-04-03T01:41:17.539Z,0
2017-04-03T01:42:19.693Z,0
2017-04-03T01:43:21.512Z,0
2017-04-03T01:44:23.337Z,0
2017-04-03T01:45:25.164Z,0
2017-04-03T01:46:26.987Z,0
2017-04-03T01:47:28.810Z,0
2017-04-03T01:48:30.637Z,0
2017-04-03T01:49:32.818Z,0
2017-04-03T01:50:34.641Z,0
2017-04-03T01:51:36.463Z,0
2017-04-03T01:52:38.287Z,0
2017-04-03T01:53:40.106Z,0
2017-04-03T01:54:41.931Z,0
2017-04-03T01:55:43.790Z,0
2017-04-03T01:56:45.614Z,0
2017-04-03T01:57:47.438Z,0
2017-04-03T01:58:49.259Z,0
2017-04-03T01:59:51.073Z,0
2017-04-03T02:00:53.252Z,0
2017-04-03T02:01:55.073Z,0
2017-04-03T02:02:57.230Z,0
2017-04-03T02:03:59.047Z,0
2017-04-03T02:05:00.873Z,0
2017-04-03T02:06:02.697Z,0
2017-04-03T02:07:04.530Z,0
2017-04-03T02:08:06.352Z,0
2017-04-03T02:09:08.171Z,0
2017-04-03T02:10:09.987Z,0
2017-04-03T02:11:12.146Z,0
2017-04-03T02:12:13.976Z,0
2017-04-03T02:13:15.796Z,0
2017-04-03T02:14:17.620Z,0
2017-04-03T02:15:19.453Z,0
2017-04-03T02:16:21.275Z,0
2017-04-03T02:17:23.094Z,0
2017-04-03T02:18:24.912Z,0
2017-04-03T02:19:26.733Z,0
2017-04-03T02:20:28.599Z,0
2017-04-03T02:21:30.419Z,0
2017-04-03T02:22:32.578Z,0
2017-04-03T02:23:34.395Z,0
2017-04-03T02:24:36.219Z,0
2017-04-03T02:25:38.384Z,0
2017-04-03T02:26:40.211Z,0
2017-04-03T02:27:42.032Z,0
2017-04-03T02:28:43.851Z,0
2017-04-03T02:29:46.027Z,0
2017-04-03T02:30:47.860Z,0
2017-04-03T02:31:49.686Z,0
2017-04-03T02:32:51.503Z,0
2017-04-03T02:33:53.329Z,0
2017-04-03T02:34:55.504Z,0
2017-04-03T02:35:57.333Z,0
2017-04-03T02:36:59.157Z,0
2017-04-03T02:38:00.981Z,0
2017-04-03T02:39:02.806Z,0
2017-04-03T02:40:04.977Z,0
2017-04-03T02:41:07.137Z,0
2017-04-03T02:42:08.959Z,0
2017-04-03T02:43:10.778Z,0
2017-04-03T02:44:12.597Z,0
2017-04-03T02:45:14.417Z,0
2017-04-03T02:46:16.246Z,0
2017-04-03T02:47:18.075Z,0
2017-04-03T02:48:20.233Z,0
2017-04-03T02:49:22.064Z,0
2017-04-03T02:50:23.885Z,0
2017-04-03T02:51:26.044Z,0
2017-04-03T02:52:27.865Z,0
2017-04-03T02:53:29.691Z,0
2017-04-03T02:54:31.509Z,0
2017-04-03T02:55:33.342Z,0
2017-04-03T02:56:35.174Z,0
2017-04-03T02:57:36.993Z,0
2017-04-03T02:58:38.815Z,0
2017-04-03T02:59:40.635Z,0
2017-04-03T03:00:42.454Z,0
2017-04-03T03:01:44.291Z,0
2017-04-03T03:02:46.111Z,0
2017-04-03T03:03:47.932Z,0
2017-04-03T03:04:49.760Z,0
2017-04-03T03:05:51.588Z,0
2017-04-03T03:06:53.761Z,0
2017-04-03T03:07:55.595Z,0
2017-04-03T03:08:57.424Z,0
2017-04-03T03:09:59.244Z,0
2017-04-03T03:11:01.403Z,0
2017-04-03T03:12:03.575Z,0
2017-04-03T03:13:05.400Z,0
2017-04-03T03:14:07.230Z,0
2017-04-03T03:15:09.047Z,0
2017-04-03T03:16:11.219Z,0
2017-04-03T03:17:13.044Z,0
2017-04-03T03:18:14.868Z,0
2017-04-03T03:19:16.694Z,0
2017-04-03T03:20:18.519Z,0
2017-04-03T03:21:20.349Z,0
2017-04-03T03:22:22.170Z,0
2017-04-03T03:23:23.991Z,0
2017-04-03T03:24:25.810Z,0
2017-04-03T03:25:27.627Z,0
2017-04-03T03:26:29.459Z,0
2017-04-03T03:27:31.286Z,0
2017-04-03T03:28:33.110Z,0
2017-04-03T03:29:34.932Z,0
2017-04-03T03:30:36.759Z,0
2017-04-03T03:31:38.619Z,0
2017-04-03T03:32:40.453Z,0
2017-04-03T03:33:42.269Z,0
2017-04-03T03:34:44.100Z,0
2017-04-03T03:35:45.921Z,0
2017-04-03T03:36:47.745Z,0
2017-04-03T03:37:49.904Z,0
2017-04-03T03:38:51.729Z,0
2017-04-03T03:39:53.893Z,0
2017-04-03T03:40:55.716Z,0
2017-04-03T03:41:57.539Z,0
2017-04-03T03:42:59.362Z,0
2017-04-03T03:44:01.195Z,0
2017-04-03T03:45:03.014Z,0
2017-04-03T03:46:05.187Z,0
2017-04-03T03:47:07.013Z,0
2017-04-03T03:48:08.839Z,0
2017-04-03T03:49:10.658Z,0
2017-04-03T03:50:12.483Z,0
2017-04-03T03:51:14.636Z,0
2017-04-03T03:52:16.470Z,0
2017-04-03T03:53:18.307Z,0
2017-04-03T03:54:20.132Z,0
2017-04-03T03:55:21.955Z,0
2017-04-03T03:56:23.774Z,0
2017-04-03T03:57:25.596Z,0
2017-04-03T03:58:27.431Z,0
2017-04-03T03:59:29.259Z,0
2017-04-03T04:00:31.083Z,0
2017-04-03T04:01:32.905Z,0
2017-04-03T04:02:34.778Z,0
2017-04-03T04:03:36.599Z,0
2017-04-03T04:04:38.425Z,0
2017-04-03T04:05:40.588Z,0
2017-04-03T04:06:42.407Z,1
2017-04-03T04:07:44.239Z,1
2017-04-03T04:08:46.410Z,1
2017-04-03T04:09:48.575Z,1
2017-04-03T04:10:50.735Z,1
2017-04-03T04:11:52.564Z,1
2017-04-03T04:12:54.383Z,1
2017-04-03T04:13:56.209Z,2
2017-04-03T04:14:58.033Z,2
2017-04-03T04:15:59.865Z,2
2017-04-03T04:17:01.685Z,1
2017-04-03T04:18:03.504Z,1
2017-04-03T04:19:05.339Z,1
2017-04-03T04:20:07.158Z,3
2017-04-03T04:21:08.987Z,3
2017-04-03T04:22:10.808Z,3
2017-04-03T04:23:12.632Z,3
2017-04-03T04:24:14.470Z,4
2017-04-03T04:25:16.289Z,5
2017-04-03T04:26:18.114Z,4
2017-04-03T04:27:19.941Z,8
2017-04-03T04:28:22.105Z,10
2017-04-03T04:29:23.929Z,13
2017-04-03T04:30:26.093Z,14
2017-04-03T04:31:27.915Z,16
2017-04-03T04:32:29.748Z,18
2017-04-03T04:33:31.571Z,21
2017-04-03T04:34:33.396Z,23
2017-04-03T04:35:35.260Z,28
2017-04-03T04:36:37.085Z,31
2017-04-03T04:37:38.905Z,33
2017-04-03T04:38:40.726Z,35
2017-04-03T04:39:42.553Z,38
2017-04-03T04:40:44.377Z,41
2017-04-03T04:41:46.206Z,45
2017-04-03T04:42:48.031Z,52
2017-04-03T04:43:50.189Z,59
2017-04-03T04:44:52.033Z,63
2017-04-03T04:45:54.197Z,70
2017-04-03T04:46:56.018Z,73
2017-04-03T04:47:58.190Z,77
2017-04-03T04:49:00.020Z,84
2017-04-03T04:50:01.845Z,92
2017-04-03T04:51:03.664Z,99
2017-04-03T04:52:05.492Z,112
2017-04-03T04:53:07.321Z,114
2017-04-03T04:54:09.500Z,114
2017-04-03T04:55:11.328Z,124
2017-04-03T04:56:13.491Z,138
2017-04-03T04:57:15.322Z,150
2017-04-03T04:58:17.141Z,159
2017-04-03T04:59:18.960Z,163
2017-04-03T05:00:20.795Z,161
2017-04-03T05:01:22.619Z,156
2017-04-03T05:02:24.781Z,164
2017-04-03T05:03:26.601Z,164
2017-04-03T05:04:28.767Z,184
2017-04-03T05:05:30.583Z,206
2017-04-03T05:06:32.413Z,221
2017-04-03T05:07:34.247Z,217
2017-04-03T05:08:36.065Z,215
2017-04-03T05:09:38.241Z,226
2017-04-03T05:10:40.085Z,246
2017-04-03T05:11:42.254Z,251
2017-04-03T05:12:44.084Z,265
2017-04-03T05:13:46.254Z,286
2017-04-03T05:14:48.078Z,308
2017-04-03T05:15:50.255Z,299
2017-04-03T05:16:52.088Z,295
2017-04-03T05:17:54.244Z,302
2017-04-03T05:18:56.064Z,325
2017-04-03T05:19:57.893Z,342
2017-04-03T05:21:00.089Z,339
2017-04-03T05:22:01.906Z,344
2017-04-03T05:23:04.073Z,355
2017-04-03T05:24:05.894Z,355
2017-04-03T05:25:07.727Z,365
2017-04-03T05:26:09.547Z,389
2017-04-03T05:27:11.369Z,414
2017-04-03T05:28:13.195Z,433
2017-04-03T05:29:15.021Z,452
2017-04-03T05:30:16.853Z,488
2017-04-03T05:31:18.676Z,492
2017-04-03T05:32:20.506Z,468
2017-04-03T05:33:22.380Z,480
2017-04-03T05:34:24.540Z,500
2017-04-03T05:35:26.357Z,528
2017-04-03T05:36:28.183Z,596
2017-04-03T05:37:30.010Z,634
2017-04-03T05:38:31.882Z,630
2017-04-03T05:39:34.038Z,633
2017-04-03T05:40:35.863Z,630
2017-04-03T05:41:37.689Z,627
2017-04-03T05:42:39.517Z,627
2017-04-03T05:43:41.340Z,646
2017-04-03T05:44:43.512Z,650
2017-04-03T05:45:45.342Z,682
2017-04-03T05:46:47.169Z,745
2017-04-03T05:47:48.998Z,766
2017-04-03T05:48:50.820Z,736
2017-04-03T05:49:52.638Z,691
2017-04-03T05:50:54.468Z,674
2017-04-03T05:51:56.293Z,678
2017-04-03T05:52:58.119Z,694
2017-04-03T05:53:59.938Z,705
2017-04-03T05:55:01.768Z,712
2017-04-03T05:56:03.936Z,703
2017-04-03T05:57:05.759Z,711
2017-04-03T05:58:07.583Z,720
2017-04-03T05:59:09.411Z,730
2017-04-03T06:00:11.242Z,752
2017-04-03T06:01:13.405Z,806
2017-04-03T06:02:15.235Z,836
2017-04-03T06:03:17.403Z,812
2017-04-03T06:04:19.230Z,816
2017-04-03T06:05:21.400Z,873
2017-04-03T06:06:23.221Z,911
2017-04-03T06:07:25.046Z,911
2017-04-03T06:08:26.877Z,918
2017-04-03T06:09:28.703Z,915
2017-04-03T06:10:30.866Z,897
2017-04-03T06:11:32.702Z,937
2017-04-03T06:12:34.519Z,1018
2017-04-03T06:13:36.341Z,1023
2017-04-03T06:14:38.173Z,1122
2017-04-03T06:15:39.991Z,1415
2017-04-03T06:16:41.820Z,1620
2017-04-03T06:17:43.649Z,1679
2017-04-03T06:18:45.477Z,1683
2017-04-03T06:19:47.303Z,1847
2017-04-03T06:20:49.125Z,2024
2017-04-03T06:21:51.319Z,2429
2017-04-03T06:22:53.511Z,2583
2017-04-03T06:23:55.339Z,2558
2017-04-03T06:24:57.499Z,2534
2017-04-03T06:25:59.725Z,2558
2017-04-03T06:27:01.549Z,2669
2017-04-03T06:28:03.372Z,2757
2017-04-03T06:29:05.207Z,2779
2017-04-03T06:30:07.034Z,2794
2017-04-03T06:31:08.854Z,2858
2017-04-03T06:32:11.016Z,2970
2017-04-03T06:33:12.849Z,3098
2017-04-03T06:34:14.678Z,3218
2017-04-03T06:35:16.505Z,3274
2017-04-03T06:36:18.336Z,3298
2017-04-03T06:37:20.161Z,3586
2017-04-03T06:38:21.982Z,3881
2017-04-03T06:39:23.805Z,4057
2017-04-03T06:40:25.624Z,4136
2017-04-03T06:41:27.450Z,4182
2017-04-03T06:42:29.317Z,4246
2017-04-03T06:43:31.151Z,4301
2017-04-03T06:44:33.322Z,4356
2017-04-03T06:45:35.149Z,4373
2017-04-03T06:46:36.976Z,4307
2017-04-03T06:47:38.809Z,4428
2017-04-03T06:48:40.635Z,4619
2017-04-03T06:49:42.458Z,4674
2017-04-03T06:50:44.278Z,4705
2017-04-03T06:51:46.107Z,4793
2017-04-03T06:52:47.932Z,4863
2017-04-03T06:53:49.756Z,4901
2017-04-03T06:54:51.628Z,4949
2017-04-03T06:55:53.807Z,5030
2017-04-03T06:56:55.636Z,5046
2017-04-03T06:57:57.465Z,4910
2017-04-03T06:58:59.626Z,4815
2017-04-03T07:00:01.454Z,4766
2017-04-03T07:01:03.973Z,4782
2017-04-03T07:02:05.805Z,4749
2017-04-03T07:03:07.642Z,4614
2017-04-03T07:04:09.468Z,4485
2017-04-03T07:05:11.298Z,4333
2017-04-03T07:06:13.132Z,4174
2017-04-03T07:07:15.305Z,4111
2017-04-03T07:08:17.137Z,4153
2017-04-03T07:09:18.969Z,4250
2017-04-03T07:10:20.790Z,4378
2017-04-03T07:11:22.614Z,4538
2017-04-03T07:12:24.434Z,4705
2017-04-03T07:13:26.261Z,4857
2017-04-03T07:14:28.429Z,4872
2017-04-03T07:15:30.295Z,4912
2017-04-03T07:16:32.124Z,4991
2017-04-03T07:17:33.949Z,5022
2017-04-03T07:18:35.777Z,4982
2017-04-03T07:19:37.946Z,4918
2017-04-03T07:20:40.112Z,4910
2017-04-03T07:21:42.270Z,4982
2017-04-03T07:22:44.101Z,5165
2017-04-03T07:23:45.928Z,5389
2017-04-03T07:24:47.750Z,5635
2017-04-03T07:25:49.582Z,5890
2017-04-03T07:26:51.412Z,6049
2017-04-03T07:27:53.595Z,6208
2017-04-03T07:28:55.431Z,6448
2017-04-03T07:29:57.253Z,6624
2017-04-03T07:30:59.079Z,6727
2017-04-03T07:32:00.912Z,6749
2017-04-03T07:33:02.734Z,6733
2017-04-03T07:34:04.566Z,6676
2017-04-03T07:35:06.397Z,6676
2017-04-03T07:36:08.217Z,6698
2017-04-03T07:37:10.040Z,6722
2017-04-03T07:38:11.870Z,6689
2017-04-03T07:39:13.691Z,6763
2017-04-03T07:40:15.521Z,6810
2017-04-03T07:41:17.693Z,6898
2017-04-03T07:42:19.520Z,7003
2017-04-03T07:43:21.685Z,7074
2017-04-03T07:44:23.512Z,7226
2017-04-03T07:45:25.332Z,7481
2017-04-03T07:46:27.164Z,7767
2017-04-03T07:47:28.995Z,7925
2017-04-03T07:48:30.854Z,7997
2017-04-03T07:49:33.019Z,8004
2017-04-03T07:50:34.925Z,8165
2017-04-03T07:51:36.793Z,8365
2017-04-03T07:52:38.653Z,8508
2017-04-03T07:53:40.518Z,8596
2017-04-03T07:54:42.729Z,8684
2017-04-03T07:55:44.579Z,8675
2017-04-03T07:56:46.403Z,8618
2017-04-03T07:57:48.246Z,8505
2017-04-03T07:58:50.124Z,8305
2017-04-03T07:59:51.955Z,8089
2017-04-03T08:00:53.818Z,7825
2017-04-03T08:01:55.689Z,7522
2017-04-03T08:02:57.861Z,7154
2017-04-03T08:03:59.702Z,6899
2017-04-03T08:05:01.581Z,6677
2017-04-03T08:06:03.755Z,6646
2017-04-03T08:07:05.949Z,6776
2017-04-03T08:08:07.778Z,6776
2017-04-03T08:09:09.728Z,6768
2017-04-03T08:10:11.898Z,6745
2017-04-03T08:11:13.820Z,6673
2017-04-03T08:12:15.644Z,6537
2017-04-03T08:13:17.478Z,6442
2017-04-03T08:14:19.310Z,6178
2017-04-03T08:15:21.138Z,5762
2017-04-03T08:16:22.989Z,5659
2017-04-03T08:17:24.820Z,5492
2017-04-03T08:18:26.713Z,5487
2017-04-03T08:19:28.540Z,5576
2017-04-03T08:20:30.375Z,6042
2017-04-03T08:21:32.387Z,6730
2017-04-03T08:22:34.213Z,7273
2017-04-03T08:23:36.378Z,7592
2017-04-03T08:24:38.222Z,7686
2017-04-03T08:25:40.206Z,7838
2017-04-03T08:26:42.032Z,7972
2017-04-03T08:27:43.857Z,8042
2017-04-03T08:28:45.696Z,7719
2017-04-03T08:29:47.880Z,6981
2017-04-03T08:30:49.709Z,6325
2017-04-03T08:31:51.530Z,6015
2017-04-03T08:32:53.373Z,6396
2017-04-03T08:33:55.202Z,7174
2017-04-03T08:34:57.068Z,7596
2017-04-03T08:35:58.913Z,7673
2017-04-03T08:37:00.742Z,7263
2017-04-03T08:38:02.565Z,6662
2017-04-03T08:39:04.398Z,6191
2017-04-03T08:40:06.227Z,5834
2017-04-03T08:41:08.231Z,5691
2017-04-03T08:42:10.064Z,5820
2017-04-03T08:43:11.895Z,6238
2017-04-03T08:44:13.911Z,6797
2017-04-03T08:45:15.740Z,7398
2017-04-03T08:46:17.918Z,8100
2017-04-03T08:47:19.743Z,8778
2017-04-03T08:48:21.572Z,9207
2017-04-03T08:49:23.589Z,9717
2017-04-03T08:50:25.415Z,10293
2017-04-03T08:51:27.244Z,10681
2017-04-03T08:52:29.077Z,11120
2017-04-03T08:53:31.023Z,11453
2017-04-03T08:54:32.853Z,11716
2017-04-03T08:55:34.684Z,12185
2017-04-03T08:56:36.512Z,12710
2017-04-03T08:57:38.345Z,12835
2017-04-03T08:58:40.176Z,12730
2017-04-03T08:59:42.006Z,12523
2017-04-03T09:00:44.121Z,12180
2017-04-03T09:01:45.953Z,11885
2017-04-03T09:02:47.791Z,11718
2017-04-03T09:03:49.626Z,11670
2017-04-03T09:04:51.452Z,11814
2017-04-03T09:05:53.626Z,11988
2017-04-03T09:06:55.453Z,11578
2017-04-03T09:07:57.284Z,11107
2017-04-03T09:08:59.104Z,10747
2017-04-03T09:10:00.937Z,10659
2017-04-03T09:11:02.764Z,11108
2017-04-03T09:12:04.590Z,11435
2017-04-03T09:13:06.413Z,11323
2017-04-03T09:14:08.240Z,11130
2017-04-03T09:15:10.064Z,11323
2017-04-03T09:16:11.901Z,11700
2017-04-03T09:17:13.729Z,12541
2017-04-03T09:18:15.598Z,13435
2017-04-03T09:19:17.428Z,14704
2017-04-03T09:20:19.256Z,15847
2017-04-03T09:21:21.081Z,15974
2017-04-03T09:22:22.919Z,15163
2017-04-03T09:23:24.747Z,14637
2017-04-03T09:24:26.573Z,14176
2017-04-03T09:25:28.736Z,13643
2017-04-03T09:26:30.559Z,13421
2017-04-03T09:27:32.433Z,13278
2017-04-03T09:28:34.255Z,13111
2017-04-03T09:29:36.090Z,12607
2017-04-03T09:30:37.911Z,12632
2017-04-03T09:31:39.740Z,13691
2017-04-03T09:32:41.566Z,14377
2017-04-03T09:33:43.612Z,14558
2017-04-03T09:34:45.564Z,14821
2017-04-03T09:35:47.396Z,14900
2017-04-03T09:36:49.228Z,15131
2017-04-03T09:37:51.210Z,14673
2017-04-03T09:38:53.039Z,14217
2017-04-03T09:39:54.866Z,14057
2017-04-03T09:40:57.039Z,13711
2017-04-03T09:41:59.109Z,13465
2017-04-03T09:43:00.940Z,13798
2017-04-03T09:44:02.771Z,14351
2017-04-03T09:45:04.620Z,14309
2017-04-03T09:46:06.780Z,13859
2017-04-03T09:47:08.621Z,13210
2017-04-03T09:48:10.457Z,12581
2017-04-03T09:49:12.626Z,12282
2017-04-03T09:50:14.738Z,11780
2017-04-03T09:51:16.565Z,10869
2017-04-03T09:52:18.499Z,9969
2017-04-03T09:53:20.347Z,9343
2017-04-03T09:54:22.582Z,8866
2017-04-03T09:55:24.422Z,8589
2017-04-03T09:56:26.295Z,8406
2017-04-03T09:57:28.464Z,8021
2017-04-03T09:58:30.628Z,7268
2017-04-03T09:59:32.461Z,6590
2017-04-03T10:00:34.635Z,6057
2017-04-03T10:01:37.156Z,5747
2017-04-03T10:02:38.991Z,5636
2017-04-03T10:03:40.818Z,5678
2017-04-03T10:04:42.656Z,5920
2017-04-03T10:05:44.836Z,6297
2017-04-03T10:06:47.073Z,6627
2017-04-03T10:07:48.901Z,6763
2017-04-03T10:08:50.744Z,6675
2017-04-03T10:09:52.577Z,6411
2017-04-03T10:10:54.839Z,6301
2017-04-03T10:11:56.679Z,6302
2017-04-03T10:12:58.502Z,6181
2017-04-03T10:14:00.340Z,6038
2017-04-03T10:15:02.335Z,6031
2017-04-03T10:16:04.156Z,6463
2017-04-03T10:17:05.983Z,7167
2017-04-03T10:18:07.808Z,7990
2017-04-03T10:19:09.646Z,8555
2017-04-03T10:20:11.820Z,9046
2017-04-03T10:21:13.651Z,9443
2017-04-03T10:22:15.526Z,9665
2017-04-03T10:23:17.354Z,9526
2017-04-03T10:24:19.183Z,9124
2017-04-03T10:25:21.015Z,8644
2017-04-03T10:26:22.844Z,8126
2017-04-03T10:27:24.678Z,7671
2017-04-03T10:28:26.816Z,7361
2017-04-03T10:29:28.642Z,7235
2017-04-03T10:30:30.471Z,7428
2017-04-03T10:31:32.346Z,7822
2017-04-03T10:32:34.183Z,8084
2017-04-03T10:33:36.005Z,8204
2017-04-03T10:34:37.851Z,8200
2017-04-03T10:35:39.680Z,8215
2017-04-03T10:36:41.508Z,8296
2017-04-03T10:37:43.346Z,8327
2017-04-03T10:38:45.178Z,8320
2017-04-03T10:39:47.342Z,8473
2017-04-03T10:40:49.632Z,8930
2017-04-03T10:41:51.525Z,9659
2017-04-03T10:42:54.019Z,10371
2017-04-03T10:43:55.896Z,11059
2017-04-03T10:44:57.722Z,11737
2017-04-03T10:45:59.558Z,12318
2017-04-03T10:47:02.013Z,12612
2017-04-03T10:48:03.853Z,12398
2017-04-03T10:49:05.677Z,11715
2017-04-03T10:50:07.517Z,10874
2017-04-03T10:51:09.341Z,10188
2017-04-03T10:52:11.173Z,9767
2017-04-03T10:53:13.000Z,9506
2017-04-03T10:54:14.827Z,9220
2017-04-03T10:55:16.655Z,8950
2017-04-03T10:56:18.481Z,8785
2017-04-03T10:57:20.310Z,8746
2017-04-03T10:58:22.146Z,8836
2017-04-03T10:59:23.984Z,8973
2017-04-03T11:00:25.818Z,9189
2017-04-03T11:01:27.641Z,9350
2017-04-03T11:02:29.476Z,9382
2017-04-03T11:03:31.755Z,9382
2017-04-03T11:04:33.623Z,9486
2017-04-03T11:05:35.458Z,9629
2017-04-03T11:06:37.283Z,9701
2017-04-03T11:07:39.141Z,9725
2017-04-03T11:08:40.972Z,9732
2017-04-03T11:09:42.799Z,9915
2017-04-03T11:10:44.624Z,10348
2017-04-03T11:11:46.450Z,10833
2017-04-03T11:12:48.277Z,11327
2017-04-03T11:13:50.107Z,11805
2017-04-03T11:14:52.277Z,12115
2017-04-03T11:15:54.876Z,12280
2017-04-03T11:16:56.700Z,12447
2017-04-03T11:17:58.534Z,12550
2017-04-03T11:19:00.358Z,12631
2017-04-03T11:20:02.198Z,12790
2017-04-03T11:21:04.368Z,13142
2017-04-03T11:22:06.207Z,13622
2017-04-03T11:23:08.375Z,14181
2017-04-03T11:24:10.549Z,14971
2017-04-03T11:25:12.758Z,16034
2017-04-03T11:26:14.581Z,17086
2017-04-03T11:27:16.413Z,18282
2017-04-03T11:28:18.245Z,19741
2017-04-03T11:29:20.431Z,21299
2017-04-03T11:30:22.252Z,22552
2017-04-03T11:31:24.093Z,23139
2017-04-03T11:32:25.931Z,25604
2017-04-03T11:33:27.759Z,21581
2017-04-03T11:34:29.589Z,20417
2017-04-03T11:35:31.466Z,19409
2017-04-03T11:36:33.299Z,18464
2017-04-03T11:37:35.878Z,17069
2017-04-03T11:38:37.778Z,15629
2017-04-03T11:39:39.604Z,14458
2017-04-03T11:40:41.443Z,13566
2017-04-03T11:41:43.273Z,12619
2017-04-03T11:42:45.101Z,11616
2017-04-03T11:43:46.944Z,10702
2017-04-03T11:44:48.778Z,10053
2017-04-03T11:45:50.608Z,9898
2017-04-03T11:46:52.818Z,9927
2017-04-03T11:47:54.654Z,10009
2017-04-03T11:48:56.480Z,10220
2017-04-03T11:49:58.316Z,10300
2017-04-03T11:51:00.896Z,10188
2017-04-03T11:52:03.058Z,10005
2017-04-03T11:53:04.901Z,9780
2017-04-03T11:54:06.738Z,9717
2017-04-03T11:55:08.563Z,10062
2017-04-03T11:56:10.389Z,10639
2017-04-03T11:57:12.220Z,11062
2017-04-03T11:58:14.044Z,11308
2017-04-03T11:59:16.237Z,11532
2017-04-03T12:00:18.125Z,11691
2017-04-03T12:01:19.964Z,11873
2017-04-03T12:02:21.821Z,12168
2017-04-03T12:03:23.657Z,12366
2017-04-03T12:04:25.487Z,12419
2017-04-03T12:05:27.652Z,12780
2017-04-03T12:06:29.537Z,13365
2017-04-03T12:07:31.362Z,13900
2017-04-03T12:08:33.324Z,14386
2017-04-03T12:09:35.501Z,14705
2017-04-03T12:10:37.426Z,15042
2017-04-03T12:11:39.590Z,15176
2017-04-03T12:12:41.463Z,15359
2017-04-03T12:13:43.292Z,15695
2017-04-03T12:14:45.142Z,16340
2017-04-03T12:15:46.965Z,17350
2017-04-03T12:16:48.880Z,18423
2017-04-03T12:17:50.704Z,19111
2017-04-03T12:18:52.548Z,19479
2017-04-03T12:19:54.761Z,19337
2017-04-03T12:20:56.595Z,18743
2017-04-03T12:21:58.525Z,18092
2017-04-03T12:23:00.368Z,17699
2017-04-03T12:24:02.211Z,17649
2017-04-03T12:25:04.040Z,17861
2017-04-03T12:26:06.003Z,18278
2017-04-03T12:27:08.191Z,19063
2017-04-03T12:28:10.206Z,19963
2017-04-03T12:29:12.376Z,20726
2017-04-03T12:30:14.549Z,21335
2017-04-03T12:31:16.537Z,22023
2017-04-03T12:32:18.364Z,22118
2017-04-03T12:33:20.190Z,22196
2017-04-03T12:34:22.023Z,22442
2017-04-03T12:35:25.083Z,22733
2017-04-03T12:36:29.119Z,23489
2017-04-03T12:37:31.424Z,24338
2017-04-03T12:38:33.619Z,25274
2017-04-03T12:39:36.136Z,25937
2017-04-03T12:40:38.304Z,27161
2017-04-03T12:41:40.133Z,27292
2017-04-03T12:42:41.969Z,31827
2017-04-03T12:43:43.798Z,65536
2017-04-03T12:44:45.627Z,65536
2017-04-03T12:45:47.459Z,65536
2017-04-03T12:46:49.297Z,65536
2017-04-03T12:52:16.719Z,25220
2017-04-03T12:53:18.569Z,25388
2017-04-03T12:54:23.745Z,25410
2017-04-03T12:55:28.049Z,25167
2017-04-03T12:56:31.223Z,25206
2017-04-03T12:57:34.175Z,36623
2017-04-03T12:58:41.801Z,65536
2017-04-03T12:59:54.036Z,65536
2017-04-03T13:00:57.003Z,33578
2017-04-03T13:01:59.234Z,32142
2017-04-03T13:03:02.578Z,31663
2017-04-03T13:04:05.735Z,31433
2017-04-03T13:05:08.254Z,30518
2017-04-03T13:06:10.078Z,29829
2017-04-03T13:07:12.741Z,28998
2017-04-03T13:08:15.675Z,32335
2017-04-03T13:09:17.521Z,26521
2017-04-03T13:10:19.524Z,21763
2017-04-03T13:11:21.355Z,19145
2017-04-03T13:12:23.199Z,18816
2017-04-03T13:13:25.044Z,16314
2017-04-03T13:14:26.882Z,17131
2017-04-03T13:15:28.818Z,26877
2017-04-03T13:16:30.639Z,65536
2017-04-03T13:17:32.488Z,65536
2017-04-03T13:18:34.348Z,65536
2017-04-03T13:19:36.181Z,65536
2017-04-03T13:20:38.044Z,20746
2017-04-03T13:21:39.876Z,65536
2017-04-03T13:22:42.067Z,65536
2017-04-03T13:23:44.245Z,65536
2017-04-03T13:24:46.185Z,65536
2017-04-03T13:25:48.353Z,65536
2017-04-03T13:26:50.301Z,65536
2017-04-03T13:27:52.196Z,65536
2017-04-03T13:28:54.028Z,65536
2017-04-03T13:29:56.294Z,65536
2017-04-03T13:30:58.118Z,65536
2017-04-03T13:31:59.976Z,65536
2017-04-03T13:33:01.837Z,65536
2017-04-03T13:34:03.697Z,65536
2017-04-03T13:35:05.534Z,65536
2017-04-03T13:36:07.404Z,30589
2017-04-03T13:37:09.615Z,65536
2017-04-03T13:38:11.526Z,65536
2017-04-03T13:39:13.361Z,32298
2017-04-03T13:40:15.371Z,32887
2017-04-03T13:41:17.221Z,37297
2017-04-03T13:42:19.065Z,65536
2017-04-03T13:43:21.255Z,21617
2017-04-03T13:44:23.129Z,65536
2017-04-03T13:45:25.027Z,65536
2017-04-03T13:46:26.881Z,65536
2017-04-03T13:47:28.719Z,65536
2017-04-03T13:48:30.556Z,65536
2017-04-03T13:49:32.544Z,65536
2017-04-03T13:50:34.381Z,65536
2017-04-03T13:51:36.218Z,65536
2017-04-03T13:52:38.053Z,35389
2017-04-03T13:53:39.888Z,33115
2017-04-03T13:54:41.725Z,65536
2017-04-03T13:55:43.584Z,65536
2017-04-03T14:00:41.418Z,65536
2017-04-03T14:01:43.242Z,65536
2017-04-03T14:02:45.050Z,27391
2017-04-03T14:03:46.868Z,31843
2017-04-03T14:04:49.020Z,65536
2017-04-03T14:05:50.828Z,65536
2017-04-03T14:06:52.643Z,16392
2017-04-03T14:07:54.464Z,21771
2017-04-03T14:08:56.283Z,65536
2017-04-03T14:09:58.099Z,13715
2017-04-03T14:10:59.926Z,12737
2017-04-03T14:12:01.741Z,13262
2017-04-03T14:13:03.696Z,25447
2017-04-03T14:14:05.517Z,12657
2017-04-03T14:15:07.334Z,65536
2017-04-03T14:16:09.253Z,21927
2017-04-03T14:17:11.059Z,34251
2017-04-03T14:18:12.872Z,29282
2017-04-03T14:19:14.739Z,65536